createdAt,value
2023-08-12T00:05:30.492Z,21.40
2023-08-12T00:07:57.239Z,18.80
2023-08-12T00:10:24.076Z,18.60
2023-08-12T00:12:50.935Z,18.60
2023-08-12T00:15:17.841Z,18.50
2023-08-12T00:17:44.693Z,18.40
2023-08-12T00:20:13.343Z,18.40
2023-08-12T00:22:41.274Z,18.40
2023-08-12T00:25:08.712Z,18.40
2023-08-12T00:27:35.738Z,18.30
2023-08-12T00:30:02.624Z,18.30
2023-08-12T00:32:29.580Z,18.20
2023-08-12T00:34:56.540Z,18.20
2023-08-12T00:49:42.160Z,18.00
2023-08-12T00:52:08.977Z,17.60
2023-08-12T00:54:35.847Z,17.60
2023-08-12T00:57:02.829Z,17.60
2023-08-12T00:59:30.183Z,17.60
2023-08-12T01:01:57.173Z,17.50
2023-08-12T01:04:24.053Z,17.40
2023-08-12T01:29:20.813Z,17.40
2023-08-12T01:31:56.736Z,16.80
2023-08-12T01:34:47.222Z,16.70
2023-08-12T01:37:24.196Z,16.80
2023-08-12T01:39:53.391Z,16.80
2023-08-12T01:42:20.935Z,16.60
2023-08-12T01:44:49.158Z,16.50
2023-08-12T01:47:15.933Z,16.50
2023-08-12T01:49:42.729Z,16.50
2023-08-12T01:52:09.562Z,16.40
2023-08-12T01:54:36.425Z,16.40
2023-08-12T01:57:06.416Z,16.40
2023-08-12T01:59:33.786Z,16.40
2023-08-12T02:02:00.620Z,16.40
2023-08-12T02:04:28.009Z,16.40
2023-08-12T02:06:55.867Z,16.40
2023-08-12T02:09:23.595Z,16.40
2023-08-12T02:11:51.083Z,16.50
2023-08-12T02:14:17.870Z,16.50
2023-08-12T02:16:44.694Z,16.50
2023-08-12T02:19:11.729Z,16.60
2023-08-12T02:21:38.556Z,16.60
2023-08-12T02:24:05.627Z,16.60
2023-08-12T02:26:32.483Z,16.60
2023-08-12T02:28:59.291Z,16.60
2023-08-12T02:31:26.242Z,16.60
2023-08-12T02:33:53.118Z,16.70
2023-08-12T02:36:20.356Z,16.50
2023-08-12T02:38:47.196Z,16.50
2023-08-12T02:41:15.129Z,16.40
2023-08-12T02:43:41.866Z,16.50
2023-08-12T02:46:08.722Z,16.40
2023-08-12T02:48:36.673Z,16.40
2023-08-12T02:51:03.637Z,16.40
2023-08-12T02:53:30.326Z,16.40
2023-08-12T02:55:57.161Z,16.40
2023-08-12T02:58:24.011Z,16.40
2023-08-12T03:03:18.125Z,16.40
2023-08-12T03:05:48.732Z,16.30
2023-08-12T03:08:15.875Z,16.20
2023-08-12T05:28:22.703Z,16.20
2023-08-12T05:30:49.828Z,16.90
2023-08-12T05:33:16.770Z,17.00
2023-08-12T05:35:43.617Z,17.10
2023-08-12T05:38:10.428Z,17.30
2023-08-12T05:40:37.203Z,17.40
2023-08-12T05:50:26.322Z,17.50
2023-08-12T05:52:53.125Z,18.10
2023-08-12T05:55:19.958Z,18.30
2023-08-12T05:57:46.805Z,18.50
2023-08-12T06:00:13.740Z,18.50
2023-08-12T06:05:08.684Z,18.70
2023-08-12T07:40:59.514Z,19.10
2023-08-12T07:43:26.288Z,24.20
2023-08-12T07:46:07.585Z,24.30
2023-08-12T19:45:34.209Z,30.60
2023-08-12T19:48:01.128Z,23.40
2023-08-12T19:50:28.636Z,23.10
2023-08-12T19:52:55.505Z,23.10
2023-08-12T19:55:22.439Z,23.00
2023-08-12T20:15:02.502Z,22.90
2023-08-12T20:17:29.343Z,22.40
2023-08-12T20:32:14.230Z,22.30
2023-08-12T20:34:42.662Z,22.00
2023-08-12T20:37:09.968Z,22.00
2023-08-12T20:39:37.122Z,22.20
2023-08-12T20:42:07.188Z,22.20
2023-08-12T20:44:33.927Z,22.20
2023-08-12T20:47:00.675Z,22.10
2023-08-12T20:49:27.442Z,22.20
2023-08-12T20:51:54.300Z,22.20
2023-08-12T20:54:20.977Z,22.30
2023-08-12T20:56:47.685Z,22.40
2023-08-12T20:59:14.502Z,22.30
2023-08-12T21:01:41.366Z,22.20
2023-08-12T21:04:08.117Z,22.20
2023-08-12T21:06:34.974Z,22.20
2023-08-12T21:09:01.924Z,22.40
2023-08-12T21:11:28.920Z,22.50
2023-08-12T21:13:55.659Z,22.30
2023-08-12T21:16:22.484Z,22.30
2023-08-12T21:18:49.322Z,22.30
2023-08-12T21:21:16.232Z,22.30
2023-08-12T21:23:42.987Z,22.30
2023-08-12T21:26:09.891Z,22.20
2023-08-12T21:28:36.747Z,22.20
2023-08-12T21:31:03.502Z,22.20
